sensor_id;sensor_type;location;lat;lon;timestamp;pressure;altitude;pressure_sealevel;temperature;humidity
35806;BME280;21925;44.608;11.580;2023-04-15T00:00:45;100470.22;;;11.89;78.62
35806;BME280;21925;44.608;11.580;2023-04-15T00:03:10;100470.25;;;11.70;78.72
35806;BME280;21925;44.608;11.580;2023-04-15T00:05:36;100471.41;;;11.69;80.19
35806;BME280;21925;44.608;11.580;2023-04-15T00:08:02;100458.09;;;11.36;82.02
35806;BME280;21925;44.608;11.580;2023-04-15T00:10:27;100450.66;;;11.37;82.17
35806;BME280;21925;44.608;11.580;2023-04-15T00:12:53;100466.53;;;11.28;84.25
35806;BME280;21925;44.608;11.580;2023-04-15T00:15:18;100445.69;;;11.08;85.92
35806;BME280;21925;44.608;11.580;2023-04-15T00:17:44;100478.22;;;11.25;85.07
35806;BME280;21925;44.608;11.580;2023-04-15T00:20:10;100463.75;;;11.09;85.96
35806;BME280;21925;44.608;11.580;2023-04-15T00:22:35;100469.22;;;11.24;86.01
35806;BME280;21925;44.608;11.580;2023-04-15T00:25:01;100461.84;;;11.28;84.73
35806;BME280;21925;44.608;11.580;2023-04-15T00:27:27;100441.31;;;11.57;82.99
35806;BME280;21925;44.608;11.580;2023-04-15T00:29:54;100452.75;;;11.43;81.93
35806;BME280;21925;44.608;11.580;2023-04-15T00:32:20;100474.25;;;11.57;82.25
35806;BME280;21925;44.608;11.580;2023-04-15T00:34:46;100454.28;;;11.41;83.02
35806;BME280;21925;44.608;11.580;2023-04-15T00:37:12;100464.31;;;11.68;81.74
35806;BME280;21925;44.608;11.580;2023-04-15T00:39:37;100466.69;;;11.35;82.46
35806;BME280;21925;44.608;11.580;2023-04-15T00:42:04;100446.19;;;11.29;81.95
35806;BME280;21925;44.608;11.580;2023-04-15T00:44:30;100458.69;;;11.26;82.76
35806;BME280;21925;44.608;11.580;2023-04-15T00:46:56;100469.06;;;11.52;81.72
35806;BME280;21925;44.608;11.580;2023-04-15T00:49:23;100466.38;;;11.21;82.94
35806;BME280;21925;44.608;11.580;2023-04-15T00:51:49;100478.00;;;10.99;84.72
35806;BME280;21925;44.608;11.580;2023-04-15T00:54:15;100467.38;;;11.13;84.94
35806;BME280;21925;44.608;11.580;2023-04-15T00:56:42;100473.03;;;11.39;83.54
35806;BME280;21925;44.608;11.580;2023-04-15T00:59:08;100462.91;;;11.24;83.54
35806;BME280;21925;44.608;11.580;2023-04-15T01:01:35;100466.00;;;11.38;82.92
35806;BME280;21925;44.608;11.580;2023-04-15T01:04:01;100468.34;;;11.55;81.39
35806;BME280;21925;44.608;11.580;2023-04-15T01:06:28;100464.91;;;11.42;80.63
35806;BME280;21925;44.608;11.580;2023-04-15T01:08:54;100471.59;;;11.26;82.02
35806;BME280;21925;44.608;11.580;2023-04-15T01:11:20;100431.56;;;10.91;82.46
35806;BME280;21925;44.608;11.580;2023-04-15T01:13:48;100459.84;;;11.10;83.52
35806;BME280;21925;44.608;11.580;2023-04-15T01:16:14;100432.19;;;10.84;84.93
35806;BME280;21925;44.608;11.580;2023-04-15T01:18:41;100466.38;;;11.21;83.06
35806;BME280;21925;44.608;11.580;2023-04-15T01:21:06;100455.13;;;11.26;80.95
35806;BME280;21925;44.608;11.580;2023-04-15T01:23:35;100466.53;;;11.28;81.37
35806;BME280;21925;44.608;11.580;2023-04-15T01:26:03;100466.13;;;11.10;81.56
35806;BME280;21925;44.608;11.580;2023-04-15T01:28:30;100461.97;;;11.01;83.66
35806;BME280;21925;44.608;11.580;2023-04-15T01:31:10;100451.91;;;10.74;84.25
35806;BME280;21925;44.608;11.580;2023-04-15T01:33:37;100467.06;;;10.68;84.56
35806;BME280;21925;44.608;11.580;2023-04-15T01:36:04;100467.56;;;10.58;85.64
35806;BME280;21925;44.608;11.580;2023-04-15T01:38:31;100459.34;;;10.58;86.70
35806;BME280;21925;44.608;11.580;2023-04-15T01:40:56;100472.97;;;10.70;87.66
35806;BME280;21925;44.608;11.580;2023-04-15T01:43:24;100473.69;;;10.67;87.26
35806;BME280;21925;44.608;11.580;2023-04-15T01:45:49;100456.34;;;10.63;85.08
35806;BME280;21925;44.608;11.580;2023-04-15T01:48:15;100462.63;;;10.64;85.56
35806;BME280;21925;44.608;11.580;2023-04-15T01:50:41;100477.31;;;10.71;85.16
35806;BME280;21925;44.608;11.580;2023-04-15T01:53:07;100477.94;;;10.80;85.69
35806;BME280;21925;44.608;11.580;2023-04-15T01:55:34;100475.28;;;10.84;83.82
35806;BME280;21925;44.608;11.580;2023-04-15T01:57:59;100488.19;;;10.83;84.07
35806;BME280;21925;44.608;11.580;2023-04-15T02:00:25;100465.72;;;10.62;85.87
35806;BME280;21925;44.608;11.580;2023-04-15T02:02:51;100459.47;;;10.62;85.24
35806;BME280;21925;44.608;11.580;2023-04-15T02:05:17;100480.75;;;10.68;85.64
35806;BME280;21925;44.608;11.580;2023-04-15T02:07:46;100481.41;;;10.62;87.15
35806;BME280;21925;44.608;11.580;2023-04-15T02:10:12;100468.28;;;10.55;88.44
35806;BME280;21925;44.608;11.580;2023-04-15T02:12:38;100478.03;;;10.68;86.83
35806;BME280;21925;44.608;11.580;2023-04-15T02:15:05;100471.91;;;10.75;86.23
35806;BME280;21925;44.608;11.580;2023-04-15T02:17:35;100483.25;;;10.73;87.97
35806;BME280;21925;44.608;11.580;2023-04-15T02:20:00;100485.63;;;10.75;88.07
35806;BME280;21925;44.608;11.580;2023-04-15T02:22:26;100476.78;;;10.81;87.20
35806;BME280;21925;44.608;11.580;2023-04-15T02:24:52;100473.84;;;10.74;87.25
35806;BME280;21925;44.608;11.580;2023-04-15T02:27:18;100462.34;;;10.84;83.97
35806;BME280;21925;44.608;11.580;2023-04-15T02:29:44;100478.44;;;11.01;84.56
35806;BME280;21925;44.608;11.580;2023-04-15T02:32:13;100458.53;;;10.89;83.79
35806;BME280;21925;44.608;11.580;2023-04-15T02:34:39;100447.25;;;10.75;84.74
35806;BME280;21925;44.608;11.580;2023-04-15T02:37:09;100482.63;;;10.95;84.95
35806;BME280;21925;44.608;11.580;2023-04-15T02:39:34;100477.81;;;10.92;83.84
35806;BME280;21925;44.608;11.580;2023-04-15T02:42:00;100484.13;;;10.77;85.73
35806;BME280;21925;44.608;11.580;2023-04-15T02:44:27;100455.28;;;10.52;87.03
35806;BME280;21925;44.608;11.580;2023-04-15T02:46:57;100465.28;;;10.45;88.59
35806;BME280;21925;44.608;11.580;2023-04-15T02:49:23;100481.19;;;10.55;86.93
35806;BME280;21925;44.608;11.580;2023-04-15T02:51:49;100468.66;;;10.54;86.79
35806;BME280;21925;44.608;11.580;2023-04-15T02:54:17;100467.59;;;10.43;88.19
35806;BME280;21925;44.608;11.580;2023-04-15T02:56:43;100469.44;;;10.54;88.33
35806;BME280;21925;44.608;11.580;2023-04-15T02:59:09;100444.59;;;10.47;86.59
35806;BME280;21925;44.608;11.580;2023-04-15T03:01:34;100470.59;;;10.69;86.75
35806;BME280;21925;44.608;11.580;2023-04-15T03:04:00;100466.34;;;10.56;86.78
35806;BME280;21925;44.608;11.580;2023-04-15T03:06:25;100476.53;;;10.55;87.50
35806;BME280;21925;44.608;11.580;2023-04-15T03:08:51;100468.03;;;10.60;87.11
35806;BME280;21925;44.608;11.580;2023-04-15T03:11:18;100427.44;;;10.50;86.71
35806;BME280;21925;44.608;11.580;2023-04-15T03:13:43;100464.22;;;10.65;86.37
35806;BME280;21925;44.608;11.580;2023-04-15T03:16:20;100476.88;;;10.69;85.58
35806;BME280;21925;44.608;11.580;2023-04-15T03:18:46;100470.31;;;10.58;86.75
35806;BME280;21925;44.608;11.580;2023-04-15T03:21:12;100477.84;;;10.61;85.85
35806;BME280;21925;44.608;11.580;2023-04-15T03:23:38;100445.75;;;10.46;86.37
35806;BME280;21925;44.608;11.580;2023-04-15T03:26:04;100486.66;;;10.55;87.99
35806;BME280;21925;44.608;11.580;2023-04-15T03:28:31;100469.63;;;10.61;86.71
35806;BME280;21925;44.608;11.580;2023-04-15T03:30:58;100462.00;;;10.70;85.18
35806;BME280;21925;44.608;11.580;2023-04-15T03:33:24;100462.88;;;10.74;84.49
35806;BME280;21925;44.608;11.580;2023-04-15T03:35:50;100479.53;;;10.81;85.84
35806;BME280;21925;44.608;11.580;2023-04-15T03:38:16;100472.38;;;10.77;84.65
35806;BME280;21925;44.608;11.580;2023-04-15T03:40:42;100474.94;;;10.70;85.71
35806;BME280;21925;44.608;11.580;2023-04-15T03:43:08;100476.88;;;10.69;85.53
35806;BME280;21925;44.608;11.580;2023-04-15T03:45:34;100473.16;;;10.46;86.71
35806;BME280;21925;44.608;11.580;2023-04-15T03:48:00;100462.47;;;10.41;86.83
35806;BME280;21925;44.608;11.580;2023-04-15T03:50:25;100477.16;;;10.64;84.48
35806;BME280;21925;44.608;11.580;2023-04-15T03:52:52;100478.47;;;10.70;84.93
35806;BME280;21925;44.608;11.580;2023-04-15T03:55:17;100473.34;;;10.69;83.72
35806;BME280;21925;44.608;11.580;2023-04-15T03:57:44;100477.13;;;10.49;87.23
35806;BME280;21925;44.608;11.580;2023-04-15T04:00:10;100475.16;;;10.34;87.81
35806;BME280;21925;44.608;11.580;2023-04-15T04:02:38;100471.09;;;10.43;86.36
35806;BME280;21925;44.608;11.580;2023-04-15T04:05:04;100483.44;;;10.49;87.40
35806;BME280;21925;44.608;11.580;2023-04-15T04:07:29;100460.16;;;10.43;89.60
35806;BME280;21925;44.608;11.580;2023-04-15T04:09:56;100477.22;;;10.52;89.50
35806;BME280;21925;44.608;11.580;2023-04-15T04:12:22;100473.59;;;10.48;91.32
35806;BME280;21925;44.608;11.580;2023-04-15T04:14:47;100486.97;;;10.65;90.12
35806;BME280;21925;44.608;11.580;2023-04-15T04:17:13;100488.66;;;10.70;90.23
35806;BME280;21925;44.608;11.580;2023-04-15T04:19:38;100465.72;;;10.62;93.07
35806;BME280;21925;44.608;11.580;2023-04-15T04:22:04;100476.78;;;10.66;95.55
35806;BME280;21925;44.608;11.580;2023-04-15T04:24:30;100468.81;;;10.76;97.97
35806;BME280;21925;44.608;11.580;2023-04-15T04:26:55;100464.69;;;10.82;99.26
35806;BME280;21925;44.608;11.580;2023-04-15T04:29:21;100481.66;;;10.72;98.35
35806;BME280;21925;44.608;11.580;2023-04-15T04:31:47;100499.56;;;10.24;99.91
35806;BME280;21925;44.608;11.580;2023-04-15T04:34:13;100500.97;;;10.18;99.49
35806;BME280;21925;44.608;11.580;2023-04-15T04:36:39;100498.47;;;10.13;99.91
35806;BME280;21925;44.608;11.580;2023-04-15T04:39:04;100499.94;;;9.83;100.00
35806;BME280;21925;44.608;11.580;2023-04-15T04:41:29;100503.75;;;10.06;100.00
35806;BME280;21925;44.608;11.580;2023-04-15T04:43:56;100495.31;;;10.26;100.00
35806;BME280;21925;44.608;11.580;2023-04-15T04:46:22;100502.16;;;10.47;100.00
35806;BME280;21925;44.608;11.580;2023-04-15T04:48:48;100488.72;;;10.89;98.40
35806;BME280;21925;44.608;11.580;2023-04-15T04:51:14;100494.94;;;10.12;98.82
35806;BME280;21925;44.608;11.580;2023-04-15T04:53:39;100501.56;;;10.27;100.00
35806;BME280;21925;44.608;11.580;2023-04-15T04:56:05;100499.66;;;10.42;99.39
35806;BME280;21925;44.608;11.580;2023-04-15T04:58:32;100487.31;;;10.48;100.00
35806;BME280;21925;44.608;11.580;2023-04-15T05:00:57;100503.69;;;10.76;97.52
35806;BME280;21925;44.608;11.580;2023-04-15T05:03:23;100501.28;;;10.74;96.47
35806;BME280;21925;44.608;11.580;2023-04-15T05:05:49;100497.03;;;10.61;96.97
35806;BME280;21925;44.608;11.580;2023-04-15T05:08:15;100489.34;;;10.82;95.88
35806;BME280;21925;44.608;11.580;2023-04-15T05:10:41;100520.19;;;11.25;94.69
35806;BME280;21925;44.608;11.580;2023-04-15T05:13:06;100524.13;;;11.59;92.38
35806;BME280;21925;44.608;11.580;2023-04-15T05:15:32;100518.00;;;11.84;89.34
35806;BME280;21925;44.608;11.580;2023-04-15T05:17:59;100515.63;;;11.83;89.11
35806;BME280;21925;44.608;11.580;2023-04-15T05:20:25;100522.09;;;11.56;94.18
35806;BME280;21925;44.608;11.580;2023-04-15T05:22:50;100519.94;;;11.65;95.06
35806;BME280;21925;44.608;11.580;2023-04-15T05:25:16;100505.34;;;11.61;94.07
35806;BME280;21925;44.608;11.580;2023-04-15T05:27:42;100529.91;;;11.54;97.45
35806;BME280;21925;44.608;11.580;2023-04-15T05:30:07;100530.97;;;11.84;96.42
35806;BME280;21925;44.608;11.580;2023-04-15T05:32:34;100525.41;;;11.99;95.24
35806;BME280;21925;44.608;11.580;2023-04-15T05:34:59;100529.78;;;12.22;92.88
35806;BME280;21925;44.608;11.580;2023-04-15T05:37:25;100528.94;;;12.18;93.90
35806;BME280;21925;44.608;11.580;2023-04-15T05:39:51;100531.81;;;12.06;97.41
35806;BME280;21925;44.608;11.580;2023-04-15T05:42:17;100537.78;;;12.08;99.94
35806;BME280;21925;44.608;11.580;2023-04-15T05:44:42;100534.25;;;12.49;95.44
35806;BME280;21925;44.608;11.580;2023-04-15T05:47:08;100544.78;;;12.66;95.72
35806;BME280;21925;44.608;11.580;2023-04-15T05:49:35;100505.59;;;12.50;95.71
35806;BME280;21925;44.608;11.580;2023-04-15T05:52:01;100543.88;;;12.81;96.21
35806;BME280;21925;44.608;11.580;2023-04-15T05:54:26;100534.81;;;12.80;98.14
35806;BME280;21925;44.608;11.580;2023-04-15T05:56:53;100548.44;;;13.15;96.20
35806;BME280;21925;44.608;11.580;2023-04-15T05:59:18;100550.41;;;13.40;91.30
35806;BME280;21925;44.608;11.580;2023-04-15T06:01:44;100551.09;;;13.59;88.64
35806;BME280;21925;44.608;11.580;2023-04-15T06:04:09;100515.19;;;13.52;88.67
35806;BME280;21925;44.608;11.580;2023-04-15T06:06:36;100548.81;;;13.65;86.48
35806;BME280;21925;44.608;11.580;2023-04-15T06:09:03;100540.56;;;13.39;89.66
35806;BME280;21925;44.608;11.580;2023-04-15T06:11:28;100547.81;;;13.51;89.56
35806;BME280;21925;44.608;11.580;2023-04-15T06:13:54;100550.56;;;13.51;91.00
35806;BME280;21925;44.608;11.580;2023-04-15T06:16:19;100553.41;;;13.57;90.58
35806;BME280;21925;44.608;11.580;2023-04-15T06:18:45;100548.88;;;13.43;94.35
35806;BME280;21925;44.608;11.580;2023-04-15T06:21:10;100554.59;;;13.31;98.90
35806;BME280;21925;44.608;11.580;2023-04-15T06:23:36;100561.91;;;13.46;100.00
35806;BME280;21925;44.608;11.580;2023-04-15T06:26:02;100555.78;;;13.55;100.00
35806;BME280;21925;44.608;11.580;2023-04-15T06:28:28;100565.84;;;14.00;98.12
35806;BME280;21925;44.608;11.580;2023-04-15T06:30:53;100571.41;;;14.03;95.54
35806;BME280;21925;44.608;11.580;2023-04-15T06:33:19;100547.47;;;13.81;100.00
35806;BME280;21925;44.608;11.580;2023-04-15T06:35:45;100563.22;;;13.81;100.00
35806;BME280;21925;44.608;11.580;2023-04-15T06:38:10;100559.38;;;13.89;100.00
35806;BME280;21925;44.608;11.580;2023-04-15T06:40:36;100565.38;;;14.20;100.00
35806;BME280;21925;44.608;11.580;2023-04-15T06:43:01;100544.31;;;14.09;100.00
35806;BME280;21925;44.608;11.580;2023-04-15T06:45:29;100578.38;;;14.56;100.00
35806;BME280;21925;44.608;11.580;2023-04-15T06:47:55;100565.16;;;14.72;100.00
35806;BME280;21925;44.608;11.580;2023-04-15T06:50:21;100560.59;;;14.90;98.44
35806;BME280;21925;44.608;11.580;2023-04-15T06:52:47;100551.97;;;14.95;98.19
35806;BME280;21925;44.608;11.580;2023-04-15T06:55:12;100562.28;;;15.01;95.91
35806;BME280;21925;44.608;11.580;2023-04-15T06:57:39;100557.09;;;15.32;91.61
35806;BME280;21925;44.608;11.580;2023-04-15T07:00:05;100562.75;;;15.53;87.47
35806;BME280;21925;44.608;11.580;2023-04-15T07:02:32;100556.56;;;15.74;87.95
35806;BME280;21925;44.608;11.580;2023-04-15T07:04:57;100566.84;;;15.70;86.48
35806;BME280;21925;44.608;11.580;2023-04-15T07:07:23;100571.06;;;16.24;84.23
35806;BME280;21925;44.608;11.580;2023-04-15T07:09:50;100554.44;;;16.10;86.23
35806;BME280;21925;44.608;11.580;2023-04-15T07:12:16;100575.56;;;16.57;85.33
35806;BME280;21925;44.608;11.580;2023-04-15T07:14:42;100566.47;;;16.53;84.37
35806;BME280;21925;44.608;11.580;2023-04-15T07:17:08;100574.31;;;16.37;88.69
35806;BME280;21925;44.608;11.580;2023-04-15T07:19:33;100570.91;;;15.93;88.73
35806;BME280;21925;44.608;11.580;2023-04-15T07:22:00;100590.28;;;15.96;86.41
35806;BME280;21925;44.608;11.580;2023-04-15T07:24:25;100585.84;;;16.53;86.98
35806;BME280;21925;44.608;11.580;2023-04-15T07:26:54;100568.72;;;16.23;86.08
35806;BME280;21925;44.608;11.580;2023-04-15T07:29:22;100573.94;;;16.42;85.60
35806;BME280;21925;44.608;11.580;2023-04-15T07:31:47;100580.31;;;16.60;84.93
35806;BME280;21925;44.608;11.580;2023-04-15T07:34:13;100579.91;;;16.58;86.01
35806;BME280;21925;44.608;11.580;2023-04-15T07:36:38;100570.47;;;16.73;84.92
35806;BME280;21925;44.608;11.580;2023-04-15T07:39:04;100565.00;;;17.00;80.36
35806;BME280;21925;44.608;11.580;2023-04-15T07:41:30;100583.63;;;17.45;79.83
35806;BME280;21925;44.608;11.580;2023-04-15T07:43:56;100580.84;;;17.66;77.95
35806;BME280;21925;44.608;11.580;2023-04-15T07:46:22;100575.97;;;18.19;75.39
35806;BME280;21925;44.608;11.580;2023-04-15T07:48:49;100578.72;;;18.36;73.71
35806;BME280;21925;44.608;11.580;2023-04-15T07:51:15;100540.38;;;17.96;74.04
35806;BME280;21925;44.608;11.580;2023-04-15T07:53:42;100580.00;;;17.93;77.74
35806;BME280;21925;44.608;11.580;2023-04-15T07:56:18;100572.63;;;18.62;79.86
35806;BME280;21925;44.608;11.580;2023-04-15T07:58:44;100575.84;;;18.53;64.42
35806;BME280;21925;44.608;11.580;2023-04-15T08:01:10;100574.22;;;18.59;63.97
35806;BME280;21925;44.608;11.580;2023-04-15T08:03:36;100522.88;;;18.06;67.80
35806;BME280;21925;44.608;11.580;2023-04-15T08:06:02;100572.50;;;17.87;70.23
35806;BME280;21925;44.608;11.580;2023-04-15T08:08:28;100581.94;;;18.21;76.39
35806;BME280;21925;44.608;11.580;2023-04-15T08:10:53;100573.13;;;18.46;75.09
35806;BME280;21925;44.608;11.580;2023-04-15T08:13:19;100589.84;;;19.04;72.23
35806;BME280;21925;44.608;11.580;2023-04-15T08:15:45;100592.38;;;18.85;74.09
35806;BME280;21925;44.608;11.580;2023-04-15T08:18:10;100589.84;;;19.04;68.87
35806;BME280;21925;44.608;11.580;2023-04-15T08:20:36;100578.34;;;19.02;74.00
35806;BME280;21925;44.608;11.580;2023-04-15T08:23:02;100601.44;;;18.89;69.19
35806;BME280;21925;44.608;11.580;2023-04-15T08:25:28;100600.53;;;18.38;75.37
35806;BME280;21925;44.608;11.580;2023-04-15T08:27:55;100590.59;;;19.08;73.83
35806;BME280;21925;44.608;11.580;2023-04-15T08:30:21;100600.44;;;18.51;73.94
35806;BME280;21925;44.608;11.580;2023-04-15T08:32:48;100583.00;;;18.54;77.37
35806;BME280;21925;44.608;11.580;2023-04-15T08:35:14;100581.28;;;18.81;71.85
35806;BME280;21925;44.608;11.580;2023-04-15T08:37:40;100575.88;;;19.18;70.87
35806;BME280;21925;44.608;11.580;2023-04-15T08:40:06;100569.25;;;19.02;68.75
35806;BME280;21925;44.608;11.580;2023-04-15T08:42:36;100584.25;;;19.15;69.42
35806;BME280;21925;44.608;11.580;2023-04-15T08:45:08;100569.22;;;18.98;72.47
35806;BME280;21925;44.608;11.580;2023-04-15T08:47:36;100583.03;;;19.19;70.68
35806;BME280;21925;44.608;11.580;2023-04-15T08:50:04;100580.25;;;19.19;67.55
35806;BME280;21925;44.608;11.580;2023-04-15T08:52:33;100573.41;;;19.74;65.97
35806;BME280;21925;44.608;11.580;2023-04-15T08:55:01;100581.97;;;19.94;66.45
35806;BME280;21925;44.608;11.580;2023-04-15T08:57:27;100575.69;;;19.42;67.92
35806;BME280;21925;44.608;11.580;2023-04-15T08:59:55;100582.34;;;19.55;67.43
35806;BME280;21925;44.608;11.580;2023-04-15T09:02:22;100570.16;;;18.81;69.07
35806;BME280;21925;44.608;11.580;2023-04-15T09:04:48;100543.88;;;18.93;68.82
35806;BME280;21925;44.608;11.580;2023-04-15T09:07:14;100584.16;;;19.25;66.88
35806;BME280;21925;44.608;11.580;2023-04-15T09:09:39;100581.63;;;18.83;65.82
35806;BME280;21925;44.608;11.580;2023-04-15T09:12:07;100591.16;;;19.43;64.72
35806;BME280;21925;44.608;11.580;2023-04-15T09:14:32;100578.28;;;19.09;64.10
35806;BME280;21925;44.608;11.580;2023-04-15T09:17:00;100582.56;;;20.11;66.03
35806;BME280;21925;44.608;11.580;2023-04-15T09:19:26;100561.91;;;19.72;66.26
35806;BME280;21925;44.608;11.580;2023-04-15T09:21:57;100569.31;;;19.86;65.86
35806;BME280;21925;44.608;11.580;2023-04-15T09:24:23;100578.06;;;20.24;65.32
35806;BME280;21925;44.608;11.580;2023-04-15T09:26:53;100597.19;;;19.82;62.72
35806;BME280;21925;44.608;11.580;2023-04-15T09:29:19;100569.75;;;19.40;61.21
35806;BME280;21925;44.608;11.580;2023-04-15T09:31:48;100579.66;;;19.45;62.50
35806;BME280;21925;44.608;11.580;2023-04-15T09:34:14;100584.69;;;19.57;62.34
35806;BME280;21925;44.608;11.580;2023-04-15T09:39:12;100582.75;;;19.54;62.84
35806;BME280;21925;44.608;11.580;2023-04-15T09:41:37;100570.34;;;19.15;59.61
35806;BME280;21925;44.608;11.580;2023-04-15T09:44:03;100562.75;;;20.39;60.94
35806;BME280;21925;44.608;11.580;2023-04-15T09:46:44;100583.38;;;20.12;60.68
35806;BME280;21925;44.608;11.580;2023-04-15T09:49:11;100573.78;;;20.80;57.17
35806;BME280;21925;44.608;11.580;2023-04-15T09:51:37;100538.47;;;20.40;58.32
35806;BME280;21925;44.608;11.580;2023-04-15T09:54:04;100565.00;;;21.07;56.72
35806;BME280;21925;44.608;11.580;2023-04-15T09:56:38;100567.63;;;21.18;58.76
35806;BME280;21925;44.608;11.580;2023-04-15T09:59:07;100554.69;;;20.78;51.86
35806;BME280;21925;44.608;11.580;2023-04-15T10:01:33;100573.81;;;20.76;56.35
35806;BME280;21925;44.608;11.580;2023-04-15T10:04:02;100570.47;;;21.37;56.01
35806;BME280;21925;44.608;11.580;2023-04-15T10:06:29;100557.22;;;21.22;54.32
35806;BME280;21925;44.608;11.580;2023-04-15T10:08:56;100561.91;;;20.72;53.56
35806;BME280;21925;44.608;11.580;2023-04-15T10:11:22;100557.16;;;20.69;54.03
35806;BME280;21925;44.608;11.580;2023-04-15T10:13:49;100553.53;;;20.46;54.41
35806;BME280;21925;44.608;11.580;2023-04-15T10:16:18;100552.81;;;20.98;51.75
35806;BME280;21925;44.608;11.580;2023-04-15T10:18:55;100561.09;;;21.28;53.39
35806;BME280;21925;44.608;11.580;2023-04-15T10:21:23;100546.84;;;21.22;52.88
35806;BME280;21925;44.608;11.580;2023-04-15T10:23:49;100538.78;;;21.28;51.55
35806;BME280;21925;44.608;11.580;2023-04-15T10:26:15;100533.56;;;21.07;51.57
35806;BME280;21925;44.608;11.580;2023-04-15T10:28:43;100549.53;;;21.52;51.37
35806;BME280;21925;44.608;11.580;2023-04-15T10:31:11;100515.34;;;21.90;50.04
35806;BME280;21925;44.608;11.580;2023-04-15T10:33:38;100549.78;;;21.61;47.85
35806;BME280;21925;44.608;11.580;2023-04-15T10:36:05;100545.34;;;21.86;46.89
35806;BME280;21925;44.608;11.580;2023-04-15T10:38:37;100530.94;;;23.33;48.50
35806;BME280;21925;44.608;11.580;2023-04-15T10:43:55;100547.06;;;22.58;49.53
35806;BME280;21925;44.608;11.580;2023-04-15T10:46:44;100522.41;;;22.72;50.92
35806;BME280;21925;44.608;11.580;2023-04-15T10:49:16;100538.81;;;23.22;52.26
35806;BME280;21925;44.608;11.580;2023-04-15T10:51:48;100536.25;;;22.60;49.46
35806;BME280;21925;44.608;11.580;2023-04-15T10:56:43;100525.78;;;24.19;48.22
35806;BME280;21925;44.608;11.580;2023-04-15T10:59:09;100528.38;;;24.14;46.30
35806;BME280;21925;44.608;11.580;2023-04-15T11:01:55;100529.69;;;23.02;49.55
35806;BME280;21925;44.608;11.580;2023-04-15T11:04:56;100524.47;;;24.90;48.92
35806;BME280;21925;44.608;11.580;2023-04-15T11:07:46;100529.41;;;24.32;47.85
35806;BME280;21925;44.608;11.580;2023-04-15T11:12:39;100504.28;;;24.70;47.59
35806;BME280;21925;44.608;11.580;2023-04-15T11:17:50;100529.06;;;22.94;48.81
35806;BME280;21925;44.608;11.580;2023-04-15T11:20:16;100518.53;;;24.22;49.81
35806;BME280;21925;44.608;11.580;2023-04-15T11:22:49;100508.66;;;24.17;46.40
35806;BME280;21925;44.608;11.580;2023-04-15T11:25:42;100515.28;;;25.26;46.05
35806;BME280;21925;44.608;11.580;2023-04-15T11:28:07;100499.19;;;25.73;48.41
35806;BME280;21925;44.608;11.580;2023-04-15T11:30:35;100504.63;;;25.55;46.02
35806;BME280;21925;44.608;11.580;2023-04-15T11:33:07;100505.50;;;25.31;45.33
35806;BME280;21925;44.608;11.580;2023-04-15T11:35:34;100503.06;;;25.54;46.23
35806;BME280;21925;44.608;11.580;2023-04-15T11:38:04;100505.84;;;26.22;45.91
35806;BME280;21925;44.608;11.580;2023-04-15T11:40:30;100494.13;;;26.02;43.26
35806;BME280;21925;44.608;11.580;2023-04-15T11:45:56;100505.19;;;25.16;44.03
35806;BME280;21925;44.608;11.580;2023-04-15T11:48:26;100504.38;;;24.66;44.38
35806;BME280;21925;44.608;11.580;2023-04-15T11:51:00;100496.31;;;24.81;45.62
35806;BME280;21925;44.608;11.580;2023-04-15T11:53:46;100495.84;;;25.32;42.32
35806;BME280;21925;44.608;11.580;2023-04-15T11:56:23;100501.00;;;24.46;42.27
35806;BME280;21925;44.608;11.580;2023-04-15T11:58:53;100495.31;;;25.12;42.24
35806;BME280;21925;44.608;11.580;2023-04-15T12:01:30;100494.28;;;25.06;44.77
35806;BME280;21925;44.608;11.580;2023-04-15T12:03:56;100488.22;;;24.70;43.16
35806;BME280;21925;44.608;11.580;2023-04-15T12:06:24;100492.38;;;24.91;45.14
35806;BME280;21925;44.608;11.580;2023-04-15T12:08:59;100495.63;;;25.01;43.67
35806;BME280;21925;44.608;11.580;2023-04-15T12:13:53;100497.31;;;24.62;43.31
35806;BME280;21925;44.608;11.580;2023-04-15T12:16:20;100497.09;;;25.18;41.87
35806;BME280;21925;44.608;11.580;2023-04-15T12:18:53;100494.69;;;25.42;40.80
35806;BME280;21925;44.608;11.580;2023-04-15T12:21:27;100490.31;;;25.28;42.18
35806;BME280;21925;44.608;11.580;2023-04-15T12:24:01;100494.84;;;25.01;41.65
35806;BME280;21925;44.608;11.580;2023-04-15T12:26:28;100485.53;;;24.79;43.05
35806;BME280;21925;44.608;11.580;2023-04-15T12:28:55;100483.66;;;25.47;41.69
35806;BME280;21925;44.608;11.580;2023-04-15T12:31:23;100476.91;;;25.91;43.81
35806;BME280;21925;44.608;11.580;2023-04-15T12:33:49;100496.66;;;27.12;46.29
35806;BME280;21925;44.608;11.580;2023-04-15T12:36:20;100478.47;;;27.61;43.95
35806;BME280;21925;44.608;11.580;2023-04-15T12:38:46;100501.06;;;27.31;42.37
35806;BME280;21925;44.608;11.580;2023-04-15T12:41:20;100494.09;;;26.66;43.08
35806;BME280;21925;44.608;11.580;2023-04-15T12:43:50;100478.66;;;27.01;45.05
35806;BME280;21925;44.608;11.580;2023-04-15T12:46:18;100494.66;;;25.88;42.56
35806;BME280;21925;44.608;11.580;2023-04-15T12:48:49;100483.84;;;26.29;43.57
35806;BME280;21925;44.608;11.580;2023-04-15T12:51:16;100481.78;;;27.12;44.04
35806;BME280;21925;44.608;11.580;2023-04-15T12:53:42;100453.34;;;26.70;43.27
35806;BME280;21925;44.608;11.580;2023-04-15T12:56:10;100487.69;;;26.65;44.78
35806;BME280;21925;44.608;11.580;2023-04-15T12:58:46;100445.13;;;26.03;44.42